sensor_id;sensor_type;location;lat;lon;timestamp;P1;durP1;ratioP1;P2;durP2;ratioP2
29838;SDS011;18669;53.356;-1.464;2023-08-08T00:00:10;1.08;;;0.90;;
29838;SDS011;18669;53.356;-1.464;2023-08-08T00:02:56;2.90;;;1.25;;
29838;SDS011;18669;53.356;-1.464;2023-08-08T00:05:41;1.65;;;1.10;;
29838;SDS011;18669;53.356;-1.464;2023-08-08T00:08:26;3.75;;;1.30;;
29838;SDS011;18669;53.356;-1.464;2023-08-08T00:11:11;3.58;;;1.13;;
29838;SDS011;18669;53.356;-1.464;2023-08-08T00:13:56;3.58;;;1.15;;
29838;SDS011;18669;53.356;-1.464;2023-08-08T00:16:41;5.35;;;1.30;;
29838;SDS011;18669;53.356;-1.464;2023-08-08T00:19:26;2.00;;;1.10;;
29838;SDS011;18669;53.356;-1.464;2023-08-08T00:22:10;6.95;;;1.30;;
29838;SDS011;18669;53.356;-1.464;2023-08-08T00:24:55;2.65;;;1.00;;
29838;SDS011;18669;53.356;-1.464;2023-08-08T00:27:41;2.67;;;1.10;;
29838;SDS011;18669;53.356;-1.464;2023-08-08T00:30:28;2.80;;;1.05;;
29838;SDS011;18669;53.356;-1.464;2023-08-08T00:33:13;6.45;;;1.02;;
29838;SDS011;18669;53.356;-1.464;2023-08-08T00:35:57;3.25;;;1.25;;
29838;SDS011;18669;53.356;-1.464;2023-08-08T00:38:42;2.33;;;0.98;;
29838;SDS011;18669;53.356;-1.464;2023-08-08T00:41:27;1.92;;;1.20;;
29838;SDS011;18669;53.356;-1.464;2023-08-08T00:44:12;3.38;;;1.20;;
29838;SDS011;18669;53.356;-1.464;2023-08-08T00:46:57;2.15;;;1.00;;
29838;SDS011;18669;53.356;-1.464;2023-08-08T00:49:42;3.67;;;1.10;;
29838;SDS011;18669;53.356;-1.464;2023-08-08T00:52:28;4.78;;;1.00;;
29838;SDS011;18669;53.356;-1.464;2023-08-08T00:55:13;1.83;;;1.20;;
29838;SDS011;18669;53.356;-1.464;2023-08-08T00:57:59;1.27;;;0.80;;
29838;SDS011;18669;53.356;-1.464;2023-08-08T01:00:44;4.80;;;1.40;;
29838;SDS011;18669;53.356;-1.464;2023-08-08T01:03:29;1.52;;;1.13;;
29838;SDS011;18669;53.356;-1.464;2023-08-08T01:09:39;3.25;;;1.13;;
29838;SDS011;18669;53.356;-1.464;2023-08-08T01:12:30;2.25;;;1.40;;
29838;SDS011;18669;53.356;-1.464;2023-08-08T01:15:15;2.85;;;1.20;;
29838;SDS011;18669;53.356;-1.464;2023-08-08T01:18:04;2.65;;;1.15;;
29838;SDS011;18669;53.356;-1.464;2023-08-08T01:20:52;2.33;;;1.20;;
29838;SDS011;18669;53.356;-1.464;2023-08-08T01:26:27;5.00;;;1.08;;
29838;SDS011;18669;53.356;-1.464;2023-08-08T01:29:12;2.55;;;1.08;;
29838;SDS011;18669;53.356;-1.464;2023-08-08T01:31:57;2.47;;;1.10;;
29838;SDS011;18669;53.356;-1.464;2023-08-08T01:34:41;1.95;;;0.90;;
29838;SDS011;18669;53.356;-1.464;2023-08-08T01:37:32;3.25;;;1.10;;
29838;SDS011;18669;53.356;-1.464;2023-08-08T01:40:21;1.23;;;0.70;;
29838;SDS011;18669;53.356;-1.464;2023-08-08T01:43:06;1.27;;;0.80;;
29838;SDS011;18669;53.356;-1.464;2023-08-08T01:45:51;2.47;;;0.77;;
29838;SDS011;18669;53.356;-1.464;2023-08-08T01:48:37;1.70;;;0.90;;
29838;SDS011;18669;53.356;-1.464;2023-08-08T01:51:22;0.93;;;0.70;;
29838;SDS011;18669;53.356;-1.464;2023-08-08T01:54:08;1.85;;;0.90;;
29838;SDS011;18669;53.356;-1.464;2023-08-08T01:56:53;0.70;;;0.70;;
29838;SDS011;18669;53.356;-1.464;2023-08-08T01:59:38;0.75;;;0.73;;
29838;SDS011;18669;53.356;-1.464;2023-08-08T02:02:23;1.23;;;0.93;;
29838;SDS011;18669;53.356;-1.464;2023-08-08T02:05:07;2.97;;;0.98;;
29838;SDS011;18669;53.356;-1.464;2023-08-08T02:07:52;1.08;;;0.90;;
29838;SDS011;18669;53.356;-1.464;2023-08-08T02:10:37;2.10;;;0.80;;
29838;SDS011;18669;53.356;-1.464;2023-08-08T02:13:22;2.53;;;0.88;;
29838;SDS011;18669;53.356;-1.464;2023-08-08T02:16:07;1.10;;;0.80;;
29838;SDS011;18669;53.356;-1.464;2023-08-08T02:18:52;3.88;;;1.02;;
29838;SDS011;18669;53.356;-1.464;2023-08-08T02:21:37;1.73;;;0.85;;
29838;SDS011;18669;53.356;-1.464;2023-08-08T02:24:22;1.63;;;1.05;;
29838;SDS011;18669;53.356;-1.464;2023-08-08T02:27:07;1.05;;;0.82;;
29838;SDS011;18669;53.356;-1.464;2023-08-08T02:29:51;1.15;;;0.90;;
29838;SDS011;18669;53.356;-1.464;2023-08-08T02:32:36;0.85;;;0.68;;
29838;SDS011;18669;53.356;-1.464;2023-08-08T02:35:21;1.67;;;1.00;;
29838;SDS011;18669;53.356;-1.464;2023-08-08T02:38:06;1.08;;;0.90;;
29838;SDS011;18669;53.356;-1.464;2023-08-08T02:40:51;1.27;;;0.95;;
29838;SDS011;18669;53.356;-1.464;2023-08-08T02:43:36;2.35;;;0.90;;
29838;SDS011;18669;53.356;-1.464;2023-08-08T02:46:21;1.50;;;1.20;;
29838;SDS011;18669;53.356;-1.464;2023-08-08T02:49:06;7.18;;;1.10;;
29838;SDS011;18669;53.356;-1.464;2023-08-08T02:51:51;3.22;;;1.30;;
29838;SDS011;18669;53.356;-1.464;2023-08-08T02:54:35;2.60;;;1.27;;
29838;SDS011;18669;53.356;-1.464;2023-08-08T02:57:20;3.05;;;1.65;;
29838;SDS011;18669;53.356;-1.464;2023-08-08T03:00:05;1.95;;;1.20;;
29838;SDS011;18669;53.356;-1.464;2023-08-08T03:05:37;2.38;;;1.20;;
29838;SDS011;18669;53.356;-1.464;2023-08-08T03:08:21;2.03;;;1.30;;
29838;SDS011;18669;53.356;-1.464;2023-08-08T03:11:06;4.47;;;1.52;;
29838;SDS011;18669;53.356;-1.464;2023-08-08T03:13:51;4.28;;;1.52;;
29838;SDS011;18669;53.356;-1.464;2023-08-08T03:16:36;3.67;;;1.42;;
29838;SDS011;18669;53.356;-1.464;2023-08-08T03:19:21;3.17;;;1.63;;
29838;SDS011;18669;53.356;-1.464;2023-08-08T03:22:06;1.40;;;1.20;;
29838;SDS011;18669;53.356;-1.464;2023-08-08T03:24:51;2.80;;;1.40;;
29838;SDS011;18669;53.356;-1.464;2023-08-08T03:27:36;3.75;;;1.30;;
29838;SDS011;18669;53.356;-1.464;2023-08-08T03:30:20;2.83;;;1.42;;
29838;SDS011;18669;53.356;-1.464;2023-08-08T03:33:06;4.70;;;1.40;;
29838;SDS011;18669;53.356;-1.464;2023-08-08T03:35:50;2.78;;;1.27;;
29838;SDS011;18669;53.356;-1.464;2023-08-08T03:38:35;3.78;;;1.33;;
29838;SDS011;18669;53.356;-1.464;2023-08-08T03:41:22;1.75;;;1.30;;
29838;SDS011;18669;53.356;-1.464;2023-08-08T03:44:06;2.03;;;1.40;;
29838;SDS011;18669;53.356;-1.464;2023-08-08T03:46:51;2.75;;;1.50;;
29838;SDS011;18669;53.356;-1.464;2023-08-08T03:49:36;4.70;;;1.60;;
29838;SDS011;18669;53.356;-1.464;2023-08-08T03:52:21;5.90;;;1.20;;
29838;SDS011;18669;53.356;-1.464;2023-08-08T03:55:06;1.70;;;1.27;;
29838;SDS011;18669;53.356;-1.464;2023-08-08T03:57:51;4.88;;;1.58;;
29838;SDS011;18669;53.356;-1.464;2023-08-08T04:00:36;4.43;;;1.40;;
29838;SDS011;18669;53.356;-1.464;2023-08-08T04:03:23;3.13;;;1.42;;
29838;SDS011;18669;53.356;-1.464;2023-08-08T04:06:08;2.75;;;1.52;;
29838;SDS011;18669;53.356;-1.464;2023-08-08T04:08:53;4.28;;;1.80;;
29838;SDS011;18669;53.356;-1.464;2023-08-08T04:11:38;2.97;;;1.38;;
29838;SDS011;18669;53.356;-1.464;2023-08-08T04:14:23;2.45;;;1.42;;
29838;SDS011;18669;53.356;-1.464;2023-08-08T04:17:08;2.70;;;1.60;;
29838;SDS011;18669;53.356;-1.464;2023-08-08T04:19:53;7.88;;;1.63;;
29838;SDS011;18669;53.356;-1.464;2023-08-08T04:22:38;3.22;;;1.25;;
29838;SDS011;18669;53.356;-1.464;2023-08-08T04:25:23;3.33;;;1.63;;
29838;SDS011;18669;53.356;-1.464;2023-08-08T04:28:08;2.65;;;1.40;;
29838;SDS011;18669;53.356;-1.464;2023-08-08T04:30:53;2.47;;;1.50;;
29838;SDS011;18669;53.356;-1.464;2023-08-08T04:33:37;3.38;;;1.52;;
29838;SDS011;18669;53.356;-1.464;2023-08-08T04:36:22;2.22;;;1.30;;
29838;SDS011;18669;53.356;-1.464;2023-08-08T04:39:07;7.28;;;1.50;;
29838;SDS011;18669;53.356;-1.464;2023-08-08T04:41:52;3.08;;;1.35;;
29838;SDS011;18669;53.356;-1.464;2023-08-08T04:44:37;2.35;;;1.40;;
29838;SDS011;18669;53.356;-1.464;2023-08-08T04:47:22;4.35;;;1.77;;
29838;SDS011;18669;53.356;-1.464;2023-08-08T04:50:07;2.80;;;1.67;;
29838;SDS011;18669;53.356;-1.464;2023-08-08T04:52:52;3.30;;;1.52;;
29838;SDS011;18669;53.356;-1.464;2023-08-08T04:55:37;3.13;;;1.90;;
29838;SDS011;18669;53.356;-1.464;2023-08-08T04:58:22;8.30;;;1.60;;
29838;SDS011;18669;53.356;-1.464;2023-08-08T05:01:07;3.65;;;1.63;;
29838;SDS011;18669;53.356;-1.464;2023-08-08T05:03:53;2.50;;;1.92;;
29838;SDS011;18669;53.356;-1.464;2023-08-08T05:06:38;1.92;;;1.50;;
29838;SDS011;18669;53.356;-1.464;2023-08-08T05:09:23;3.13;;;1.52;;
29838;SDS011;18669;53.356;-1.464;2023-08-08T05:12:10;5.13;;;1.85;;
29838;SDS011;18669;53.356;-1.464;2023-08-08T05:14:55;5.00;;;2.05;;
29838;SDS011;18669;53.356;-1.464;2023-08-08T05:17:40;4.13;;;2.00;;
29838;SDS011;18669;53.356;-1.464;2023-08-08T05:20:25;5.05;;;1.77;;
29838;SDS011;18669;53.356;-1.464;2023-08-08T05:23:10;4.25;;;1.52;;
29838;SDS011;18669;53.356;-1.464;2023-08-08T05:25:55;5.32;;;1.70;;
29838;SDS011;18669;53.356;-1.464;2023-08-08T05:28:40;5.50;;;1.50;;
29838;SDS011;18669;53.356;-1.464;2023-08-08T05:31:25;2.47;;;1.58;;
29838;SDS011;18669;53.356;-1.464;2023-08-08T05:34:10;5.63;;;1.80;;
29838;SDS011;18669;53.356;-1.464;2023-08-08T05:36:55;4.78;;;1.83;;
29838;SDS011;18669;53.356;-1.464;2023-08-08T05:39:39;6.15;;;1.90;;
29838;SDS011;18669;53.356;-1.464;2023-08-08T05:42:25;4.18;;;2.15;;
29838;SDS011;18669;53.356;-1.464;2023-08-08T05:45:09;4.53;;;2.55;;
29838;SDS011;18669;53.356;-1.464;2023-08-08T05:47:54;10.00;;;2.72;;
29838;SDS011;18669;53.356;-1.464;2023-08-08T05:50:40;6.72;;;3.20;;
29838;SDS011;18669;53.356;-1.464;2023-08-08T05:53:25;4.57;;;2.72;;
29838;SDS011;18669;53.356;-1.464;2023-08-08T05:56:09;5.55;;;2.58;;
29838;SDS011;18669;53.356;-1.464;2023-08-08T05:58:54;6.20;;;2.63;;
29838;SDS011;18669;53.356;-1.464;2023-08-08T06:01:39;6.00;;;2.47;;
29838;SDS011;18669;53.356;-1.464;2023-08-08T06:04:24;3.95;;;2.00;;
29838;SDS011;18669;53.356;-1.464;2023-08-08T06:07:09;5.18;;;2.70;;
29838;SDS011;18669;53.356;-1.464;2023-08-08T06:09:54;4.30;;;2.15;;
29838;SDS011;18669;53.356;-1.464;2023-08-08T06:12:39;7.88;;;2.75;;
29838;SDS011;18669;53.356;-1.464;2023-08-08T06:15:24;2.58;;;1.85;;
29838;SDS011;18669;53.356;-1.464;2023-08-08T06:18:09;8.05;;;2.50;;
29838;SDS011;18669;53.356;-1.464;2023-08-08T06:20:54;5.25;;;2.38;;
29838;SDS011;18669;53.356;-1.464;2023-08-08T06:23:38;5.20;;;2.25;;
29838;SDS011;18669;53.356;-1.464;2023-08-08T06:26:23;8.68;;;2.58;;
29838;SDS011;18669;53.356;-1.464;2023-08-08T06:29:08;2.30;;;2.10;;
29838;SDS011;18669;53.356;-1.464;2023-08-08T06:31:53;6.75;;;2.60;;
29838;SDS011;18669;53.356;-1.464;2023-08-08T06:34:38;4.68;;;2.15;;
29838;SDS011;18669;53.356;-1.464;2023-08-08T06:37:23;4.53;;;2.50;;
29838;SDS011;18669;53.356;-1.464;2023-08-08T06:40:08;4.68;;;2.53;;
29838;SDS011;18669;53.356;-1.464;2023-08-08T06:42:54;6.90;;;2.40;;
29838;SDS011;18669;53.356;-1.464;2023-08-08T06:45:39;4.30;;;2.75;;
29838;SDS011;18669;53.356;-1.464;2023-08-08T06:48:24;5.85;;;2.67;;
29838;SDS011;18669;53.356;-1.464;2023-08-08T06:51:09;6.40;;;2.10;;
29838;SDS011;18669;53.356;-1.464;2023-08-08T06:53:54;4.40;;;2.20;;
29838;SDS011;18669;53.356;-1.464;2023-08-08T06:56:39;4.65;;;2.20;;
29838;SDS011;18669;53.356;-1.464;2023-08-08T06:59:25;6.95;;;2.13;;
29838;SDS011;18669;53.356;-1.464;2023-08-08T07:02:10;2.67;;;1.80;;
29838;SDS011;18669;53.356;-1.464;2023-08-08T07:04:56;3.75;;;2.00;;
29838;SDS011;18669;53.356;-1.464;2023-08-08T07:07:40;6.72;;;1.80;;
29838;SDS011;18669;53.356;-1.464;2023-08-08T07:10:25;11.93;;;6.93;;
29838;SDS011;18669;53.356;-1.464;2023-08-08T07:13:11;4.03;;;2.85;;
29838;SDS011;18669;53.356;-1.464;2023-08-08T07:15:56;3.78;;;2.10;;
29838;SDS011;18669;53.356;-1.464;2023-08-08T07:18:41;3.90;;;2.50;;
29838;SDS011;18669;53.356;-1.464;2023-08-08T07:21:26;4.75;;;2.78;;
29838;SDS011;18669;53.356;-1.464;2023-08-08T07:24:11;4.95;;;2.33;;
29838;SDS011;18669;53.356;-1.464;2023-08-08T07:26:57;5.25;;;2.13;;
29838;SDS011;18669;53.356;-1.464;2023-08-08T07:29:43;5.40;;;3.28;;
29838;SDS011;18669;53.356;-1.464;2023-08-08T07:32:28;3.90;;;2.22;;
29838;SDS011;18669;53.356;-1.464;2023-08-08T07:35:13;3.40;;;2.30;;
29838;SDS011;18669;53.356;-1.464;2023-08-08T07:37:59;3.00;;;2.40;;
29838;SDS011;18669;53.356;-1.464;2023-08-08T07:40:44;5.25;;;2.17;;
29838;SDS011;18669;53.356;-1.464;2023-08-08T07:43:30;5.33;;;2.80;;
29838;SDS011;18669;53.356;-1.464;2023-08-08T07:46:15;3.72;;;2.42;;
29838;SDS011;18669;53.356;-1.464;2023-08-08T07:48:59;2.45;;;2.00;;
29838;SDS011;18669;53.356;-1.464;2023-08-08T07:51:47;5.45;;;2.45;;
29838;SDS011;18669;53.356;-1.464;2023-08-08T07:54:32;3.78;;;2.00;;
29838;SDS011;18669;53.356;-1.464;2023-08-08T07:57:17;3.28;;;2.03;;
29838;SDS011;18669;53.356;-1.464;2023-08-08T08:00:02;5.72;;;2.00;;
29838;SDS011;18669;53.356;-1.464;2023-08-08T08:03:07;2.80;;;1.80;;
29838;SDS011;18669;53.356;-1.464;2023-08-08T08:05:52;5.75;;;1.77;;
29838;SDS011;18669;53.356;-1.464;2023-08-08T08:08:37;9.35;;;2.45;;
29838;SDS011;18669;53.356;-1.464;2023-08-08T08:11:22;4.45;;;2.15;;
29838;SDS011;18669;53.356;-1.464;2023-08-08T08:14:07;5.05;;;2.42;;
29838;SDS011;18669;53.356;-1.464;2023-08-08T08:16:52;3.08;;;2.47;;
29838;SDS011;18669;53.356;-1.464;2023-08-08T08:19:37;4.95;;;2.03;;
29838;SDS011;18669;53.356;-1.464;2023-08-08T08:22:22;4.72;;;2.30;;
29838;SDS011;18669;53.356;-1.464;2023-08-08T08:25:06;7.13;;;3.38;;
29838;SDS011;18669;53.356;-1.464;2023-08-08T08:27:53;5.18;;;1.70;;
29838;SDS011;18669;53.356;-1.464;2023-08-08T08:30:38;2.58;;;1.83;;
29838;SDS011;18669;53.356;-1.464;2023-08-08T08:33:23;4.05;;;2.00;;
29838;SDS011;18669;53.356;-1.464;2023-08-08T08:36:08;2.78;;;1.60;;
29838;SDS011;18669;53.356;-1.464;2023-08-08T08:38:53;3.33;;;1.70;;
29838;SDS011;18669;53.356;-1.464;2023-08-08T08:41:38;4.68;;;1.80;;
29838;SDS011;18669;53.356;-1.464;2023-08-08T08:44:23;2.58;;;1.60;;
29838;SDS011;18669;53.356;-1.464;2023-08-08T08:49:56;2.55;;;1.50;;
29838;SDS011;18669;53.356;-1.464;2023-08-08T08:52:42;2.38;;;1.55;;
29838;SDS011;18669;53.356;-1.464;2023-08-08T08:55:27;1.80;;;1.33;;
29838;SDS011;18669;53.356;-1.464;2023-08-08T08:58:13;2.17;;;1.40;;
29838;SDS011;18669;53.356;-1.464;2023-08-08T09:01:00;2.60;;;1.23;;
29838;SDS011;18669;53.356;-1.464;2023-08-08T09:03:46;2.40;;;1.27;;
29838;SDS011;18669;53.356;-1.464;2023-08-08T09:06:31;2.03;;;1.42;;
29838;SDS011;18669;53.356;-1.464;2023-08-08T09:09:16;2.15;;;1.40;;
29838;SDS011;18669;53.356;-1.464;2023-08-08T09:12:02;7.33;;;1.50;;
29838;SDS011;18669;53.356;-1.464;2023-08-08T09:14:53;3.05;;;1.50;;
29838;SDS011;18669;53.356;-1.464;2023-08-08T09:17:43;4.50;;;1.73;;
29838;SDS011;18669;53.356;-1.464;2023-08-08T09:20:29;7.40;;;2.40;;
29838;SDS011;18669;53.356;-1.464;2023-08-08T09:23:16;4.00;;;2.05;;
29838;SDS011;18669;53.356;-1.464;2023-08-08T09:26:01;5.47;;;1.40;;
29838;SDS011;18669;53.356;-1.464;2023-08-08T09:28:46;2.97;;;1.50;;
29838;SDS011;18669;53.356;-1.464;2023-08-08T09:31:31;3.75;;;1.73;;
29838;SDS011;18669;53.356;-1.464;2023-08-08T09:34:18;1.70;;;1.27;;
29838;SDS011;18669;53.356;-1.464;2023-08-08T09:37:02;3.13;;;1.40;;
29838;SDS011;18669;53.356;-1.464;2023-08-08T09:39:59;1.67;;;1.30;;
29838;SDS011;18669;53.356;-1.464;2023-08-08T09:42:44;4.57;;;1.20;;
29838;SDS011;18669;53.356;-1.464;2023-08-08T09:45:38;1.00;;;1.00;;
29838;SDS011;18669;53.356;-1.464;2023-08-08T09:48:29;3.42;;;1.10;;
29838;SDS011;18669;53.356;-1.464;2023-08-08T09:51:15;1.13;;;0.95;;
29838;SDS011;18669;53.356;-1.464;2023-08-08T09:54:01;1.30;;;1.20;;
29838;SDS011;18669;53.356;-1.464;2023-08-08T09:56:48;1.95;;;1.27;;
29838;SDS011;18669;53.356;-1.464;2023-08-08T09:59:34;2.47;;;1.20;;
29838;SDS011;18669;53.356;-1.464;2023-08-08T10:02:19;1.98;;;1.00;;
29838;SDS011;18669;53.356;-1.464;2023-08-08T10:05:04;3.47;;;0.93;;
29838;SDS011;18669;53.356;-1.464;2023-08-08T10:07:49;1.60;;;1.50;;
29838;SDS011;18669;53.356;-1.464;2023-08-08T10:10:34;2.83;;;1.13;;
29838;SDS011;18669;53.356;-1.464;2023-08-08T10:13:23;1.95;;;1.13;;
29838;SDS011;18669;53.356;-1.464;2023-08-08T10:16:09;1.20;;;0.80;;
29838;SDS011;18669;53.356;-1.464;2023-08-08T10:18:55;3.65;;;1.20;;
29838;SDS011;18669;53.356;-1.464;2023-08-08T10:21:43;1.60;;;1.30;;
29838;SDS011;18669;53.356;-1.464;2023-08-08T10:24:32;2.25;;;1.13;;
29838;SDS011;18669;53.356;-1.464;2023-08-08T10:27:33;1.52;;;1.10;;
29838;SDS011;18669;53.356;-1.464;2023-08-08T10:30:20;0.70;;;0.70;;
29838;SDS011;18669;53.356;-1.464;2023-08-08T10:33:05;1.65;;;1.23;;
29838;SDS011;18669;53.356;-1.464;2023-08-08T10:36:08;2.38;;;1.10;;
29838;SDS011;18669;53.356;-1.464;2023-08-08T10:38:57;2.38;;;1.10;;
29838;SDS011;18669;53.356;-1.464;2023-08-08T10:41:46;4.90;;;1.20;;
29838;SDS011;18669;53.356;-1.464;2023-08-08T10:44:40;2.15;;;1.15;;
29838;SDS011;18669;53.356;-1.464;2023-08-08T10:47:35;3.35;;;1.30;;
29838;SDS011;18669;53.356;-1.464;2023-08-08T10:50:24;1.25;;;1.10;;
29838;SDS011;18669;53.356;-1.464;2023-08-08T10:53:09;2.13;;;1.00;;
29838;SDS011;18669;53.356;-1.464;2023-08-08T10:55:57;2.15;;;1.10;;
29838;SDS011;18669;53.356;-1.464;2023-08-08T10:58:47;3.70;;;1.30;;
29838;SDS011;18669;53.356;-1.464;2023-08-08T11:01:32;2.78;;;1.20;;
29838;SDS011;18669;53.356;-1.464;2023-08-08T11:04:18;2.63;;;1.10;;
29838;SDS011;18669;53.356;-1.464;2023-08-08T11:07:04;3.50;;;0.90;;
29838;SDS011;18669;53.356;-1.464;2023-08-08T11:09:49;1.98;;;1.20;;
29838;SDS011;18669;53.356;-1.464;2023-08-08T11:12:34;2.97;;;1.23;;
29838;SDS011;18669;53.356;-1.464;2023-08-08T11:15:19;3.15;;;1.40;;
29838;SDS011;18669;53.356;-1.464;2023-08-08T11:18:04;1.73;;;0.95;;
29838;SDS011;18669;53.356;-1.464;2023-08-08T11:20:49;4.60;;;1.17;;
29838;SDS011;18669;53.356;-1.464;2023-08-08T11:23:34;3.10;;;1.05;;
29838;SDS011;18669;53.356;-1.464;2023-08-08T11:26:22;2.30;;;1.10;;
29838;SDS011;18669;53.356;-1.464;2023-08-08T11:29:08;2.63;;;1.10;;
29838;SDS011;18669;53.356;-1.464;2023-08-08T11:31:53;4.00;;;1.00;;
29838;SDS011;18669;53.356;-1.464;2023-08-08T11:34:38;2.50;;;1.20;;
29838;SDS011;18669;53.356;-1.464;2023-08-08T11:37:23;4.05;;;1.40;;
29838;SDS011;18669;53.356;-1.464;2023-08-08T11:40:08;2.25;;;1.30;;
29838;SDS011;18669;53.356;-1.464;2023-08-08T11:42:54;2.45;;;1.23;;
29838;SDS011;18669;53.356;-1.464;2023-08-08T11:45:42;2.13;;;0.98;;
29838;SDS011;18669;53.356;-1.464;2023-08-08T11:48:27;7.95;;;5.47;;
29838;SDS011;18669;53.356;-1.464;2023-08-08T11:51:13;4.65;;;1.30;;
29838;SDS011;18669;53.356;-1.464;2023-08-08T11:54:01;2.15;;;1.17;;
29838;SDS011;18669;53.356;-1.464;2023-08-08T11:56:47;2.75;;;1.40;;
29838;SDS011;18669;53.356;-1.464;2023-08-08T11:59:33;1.92;;;1.15;;
29838;SDS011;18669;53.356;-1.464;2023-08-08T12:02:17;2.25;;;1.02;;
29838;SDS011;18669;53.356;-1.464;2023-08-08T12:05:06;4.65;;;1.02;;
29838;SDS011;18669;53.356;-1.464;2023-08-08T12:07:51;1.60;;;0.90;;
29838;SDS011;18669;53.356;-1.464;2023-08-08T12:10:36;5.05;;;1.20;;
29838;SDS011;18669;53.356;-1.464;2023-08-08T12:13:21;1.10;;;0.98;;
29838;SDS011;18669;53.356;-1.464;2023-08-08T12:16:11;2.13;;;1.02;;
29838;SDS011;18669;53.356;-1.464;2023-08-08T12:18:56;1.60;;;0.90;;
29838;SDS011;18669;53.356;-1.464;2023-08-08T12:21:41;8.25;;;1.48;;
29838;SDS011;18669;53.356;-1.464;2023-08-08T12:24:26;2.97;;;1.37;;
29838;SDS011;18669;53.356;-1.464;2023-08-08T12:27:11;1.20;;;0.80;;
29838;SDS011;18669;53.356;-1.464;2023-08-08T12:29:56;1.15;;;0.90;;
29838;SDS011;18669;53.356;-1.464;2023-08-08T12:32:41;1.67;;;1.10;;
29838;SDS011;18669;53.356;-1.464;2023-08-08T12:35:26;4.68;;;1.15;;
29838;SDS011;18669;53.356;-1.464;2023-08-08T12:38:11;3.17;;;1.17;;
29838;SDS011;18669;53.356;-1.464;2023-08-08T12:40:56;3.80;;;1.33;;
29838;SDS011;18669;53.356;-1.464;2023-08-08T12:43:42;2.97;;;1.60;;
29838;SDS011;18669;53.356;-1.464;2023-08-08T12:46:27;3.13;;;1.60;;
29838;SDS011;18669;53.356;-1.464;2023-08-08T12:49:11;4.45;;;2.22;;
29838;SDS011;18669;53.356;-1.464;2023-08-08T12:51:56;5.15;;;1.58;;
29838;SDS011;18669;53.356;-1.464;2023-08-08T12:54:42;3.50;;;1.50;;
29838;SDS011;18669;53.356;-1.464;2023-08-08T12:57:27;2.72;;;1.63;;
29838;SDS011;18669;53.356;-1.464;2023-08-08T13:00:12;2.55;;;1.50;;
29838;SDS011;18669;53.356;-1.464;2023-08-08T13:02:58;3.70;;;1.50;;
29838;SDS011;18669;53.356;-1.464;2023-08-08T13:05:43;5.38;;;1.80;;
29838;SDS011;18669;53.356;-1.464;2023-08-08T13:08:27;7.00;;;2.00;;
29838;SDS011;18669;53.356;-1.464;2023-08-08T13:11:12;3.40;;;1.60;;
29838;SDS011;18669;53.356;-1.464;2023-08-08T13:13:57;6.75;;;1.50;;
29838;SDS011;18669;53.356;-1.464;2023-08-08T13:16:42;7.47;;;1.60;;
29838;SDS011;18669;53.356;-1.464;2023-08-08T13:19:27;4.72;;;1.50;;
29838;SDS011;18669;53.356;-1.464;2023-08-08T13:22:12;17.15;;;5.63;;
29838;SDS011;18669;53.356;-1.464;2023-08-08T13:24:56;5.43;;;1.83;;
29838;SDS011;18669;53.356;-1.464;2023-08-08T13:27:41;5.97;;;1.90;;
29838;SDS011;18669;53.356;-1.464;2023-08-08T13:30:27;3.40;;;1.50;;
29838;SDS011;18669;53.356;-1.464;2023-08-08T13:33:11;6.07;;;1.52;;
29838;SDS011;18669;53.356;-1.464;2023-08-08T13:35:56;7.97;;;1.60;;
29838;SDS011;18669;53.356;-1.464;2023-08-08T13:38:41;9.85;;;3.25;;
29838;SDS011;18669;53.356;-1.464;2023-08-08T13:41:26;8.48;;;2.83;;
29838;SDS011;18669;53.356;-1.464;2023-08-08T13:44:11;86.75;;;17.98;;
29838;SDS011;18669;53.356;-1.464;2023-08-08T13:46:56;98.13;;;21.20;;
29838;SDS011;18669;53.356;-1.464;2023-08-08T13:49:42;25.75;;;5.00;;
29838;SDS011;18669;53.356;-1.464;2023-08-08T13:52:27;5.13;;;2.05;;
29838;SDS011;18669;53.356;-1.464;2023-08-08T13:55:12;9.75;;;2.53;;
29838;SDS011;18669;53.356;-1.464;2023-08-08T13:57:57;7.93;;;3.17;;
29838;SDS011;18669;53.356;-1.464;2023-08-08T14:00:42;9.55;;;2.97;;
29838;SDS011;18669;53.356;-1.464;2023-08-08T14:03:27;13.73;;;3.55;;
29838;SDS011;18669;53.356;-1.464;2023-08-08T14:06:12;2.35;;;1.42;;
29838;SDS011;18669;53.356;-1.464;2023-08-08T14:08:57;6.68;;;1.55;;
29838;SDS011;18669;53.356;-1.464;2023-08-08T14:11:41;2.35;;;1.25;;
29838;SDS011;18669;53.356;-1.464;2023-08-08T14:14:26;4.00;;;1.60;;
29838;SDS011;18669;53.356;-1.464;2023-08-08T14:17:11;3.67;;;1.30;;
29838;SDS011;18669;53.356;-1.464;2023-08-08T14:19:56;1.77;;;0.82;;
29838;SDS011;18669;53.356;-1.464;2023-08-08T14:22:43;2.10;;;0.60;;
29838;SDS011;18669;53.356;-1.464;2023-08-08T14:25:31;1.95;;;1.02;;
29838;SDS011;18669;53.356;-1.464;2023-08-08T14:28:16;1.05;;;0.60;;
29838;SDS011;18669;53.356;-1.464;2023-08-08T14:31:00;2.50;;;0.80;;
29838;SDS011;18669;53.356;-1.464;2023-08-08T14:33:46;1.20;;;0.50;;
29838;SDS011;18669;53.356;-1.464;2023-08-08T14:36:33;1.40;;;0.80;;
29838;SDS011;18669;53.356;-1.464;2023-08-08T14:39:17;0.80;;;0.70;;
29838;SDS011;18669;53.356;-1.464;2023-08-08T14:42:02;1.02;;;0.75;;
29838;SDS011;18669;53.356;-1.464;2023-08-08T14:44:47;5.35;;;2.00;;
29838;SDS011;18669;53.356;-1.464;2023-08-08T14:47:32;4.07;;;0.85;;
29838;SDS011;18669;53.356;-1.464;2023-08-08T14:50:17;1.50;;;0.95;;
29838;SDS011;18669;53.356;-1.464;2023-08-08T14:53:02;4.45;;;1.60;;
29838;SDS011;18669;53.356;-1.464;2023-08-08T14:55:47;2.13;;;1.25;;
29838;SDS011;18669;53.356;-1.464;2023-08-08T14:58:32;5.17;;;1.60;;
29838;SDS011;18669;53.356;-1.464;2023-08-08T15:01:19;1.75;;;1.17;;
29838;SDS011;18669;53.356;-1.464;2023-08-08T15:04:04;4.82;;;2.17;;
29838;SDS011;18669;53.356;-1.464;2023-08-08T15:06:49;2.80;;;1.95;;
29838;SDS011;18669;53.356;-1.464;2023-08-08T15:09:34;0.80;;;0.70;;
29838;SDS011;18669;53.356;-1.464;2023-08-08T15:12:19;5.85;;;1.20;;
29838;SDS011;18669;53.356;-1.464;2023-08-08T15:15:05;2.53;;;0.90;;
29838;SDS011;18669;53.356;-1.464;2023-08-08T15:17:50;2.25;;;0.85;;
29838;SDS011;18669;53.356;-1.464;2023-08-08T15:20:36;1.48;;;0.60;;
29838;SDS011;18669;53.356;-1.464;2023-08-08T15:23:21;1.63;;;0.60;;
29838;SDS011;18669;53.356;-1.464;2023-08-08T15:26:05;4.15;;;0.80;;
29838;SDS011;18669;53.356;-1.464;2023-08-08T15:28:51;3.15;;;1.60;;
29838;SDS011;18669;53.356;-1.464;2023-08-08T15:31:36;2.42;;;0.90;;
29838;SDS011;18669;53.356;-1.464;2023-08-08T15:34:21;1.63;;;0.95;;
29838;SDS011;18669;53.356;-1.464;2023-08-08T15:37:06;1.50;;;0.80;;
29838;SDS011;18669;53.356;-1.464;2023-08-08T15:39:51;0.90;;;0.75;;
29838;SDS011;18669;53.356;-1.464;2023-08-08T15:42:35;1.45;;;0.82;;
29838;SDS011;18669;53.356;-1.464;2023-08-08T15:45:20;0.70;;;0.70;;
29838;SDS011;18669;53.356;-1.464;2023-08-08T15:48:05;1.85;;;0.70;;
29838;SDS011;18669;53.356;-1.464;2023-08-08T15:50:50;2.67;;;0.93;;
29838;SDS011;18669;53.356;-1.464;2023-08-08T15:53:35;6.40;;;1.08;;
29838;SDS011;18669;53.356;-1.464;2023-08-08T15:56:20;1.02;;;0.50;;
29838;SDS011;18669;53.356;-1.464;2023-08-08T15:59:05;0.88;;;0.65;;
29838;SDS011;18669;53.356;-1.464;2023-08-08T16:01:50;2.20;;;1.30;;
29838;SDS011;18669;53.356;-1.464;2023-08-08T16:04:35;5.97;;;2.08;;
29838;SDS011;18669;53.356;-1.464;2023-08-08T16:07:20;2.78;;;0.88;;
29838;SDS011;18669;53.356;-1.464;2023-08-08T16:10:05;1.98;;;0.63;;
29838;SDS011;18669;53.356;-1.464;2023-08-08T16:12:51;4.18;;;1.05;;
29838;SDS011;18669;53.356;-1.464;2023-08-08T16:15:36;0.70;;;0.65;;
29838;SDS011;18669;53.356;-1.464;2023-08-08T16:18:21;0.75;;;0.60;;
29838;SDS011;18669;53.356;-1.464;2023-08-08T16:21:05;0.73;;;0.68;;
29838;SDS011;18669;53.356;-1.464;2023-08-08T16:23:50;3.70;;;2.25;;
29838;SDS011;18669;53.356;-1.464;2023-08-08T16:26:35;0.70;;;0.60;;
29838;SDS011;18669;53.356;-1.464;2023-08-08T16:29:20;1.05;;;0.50;;
29838;SDS011;18669;53.356;-1.464;2023-08-08T16:32:05;1.38;;;0.70;;